createdAt,value
2024-02-11T00:01:03.524Z,8.74
2024-02-11T00:06:09.798Z,8.69
2024-02-11T00:11:14.450Z,8.69
2024-02-11T00:16:19.974Z,8.70
2024-02-11T00:21:23.650Z,8.70
2024-02-11T00:26:27.146Z,8.65
2024-02-11T00:31:32.348Z,8.63
2024-02-11T00:36:37.866Z,8.60
2024-02-11T00:41:41.566Z,8.60
2024-02-11T00:46:47.775Z,8.60
2024-02-11T00:51:50.901Z,8.56
2024-02-11T00:56:56.154Z,8.49
2024-02-11T01:02:01.236Z,8.43
2024-02-11T01:07:04.275Z,8.43
2024-02-11T01:12:07.720Z,8.41
2024-02-11T01:17:12.105Z,8.39
2024-02-11T01:22:15.242Z,8.38
2024-02-11T01:27:18.310Z,8.38
2024-02-11T01:32:24.998Z,8.37
2024-02-11T01:37:27.887Z,8.35
2024-02-11T01:42:31.292Z,8.32
2024-02-11T01:47:36.578Z,8.33
2024-02-11T01:52:39.609Z,8.32
2024-02-11T01:57:43.796Z,8.28
2024-02-11T02:02:49.664Z,8.28
2024-02-11T02:07:55.341Z,8.26
2024-02-11T02:12:58.359Z,8.25
2024-02-11T02:18:03.593Z,8.21
2024-02-11T02:23:08.034Z,8.17
2024-02-11T02:28:10.896Z,8.14
2024-02-11T02:33:14.490Z,8.08
2024-02-11T02:38:18.803Z,8.02
2024-02-11T02:43:21.976Z,7.96
2024-02-11T02:48:24.974Z,7.94
2024-02-11T02:53:31.094Z,7.94
2024-02-11T02:58:34.078Z,7.92
2024-02-11T03:03:38.408Z,7.89
2024-02-11T03:08:42.790Z,7.98
2024-02-11T03:13:45.968Z,8.07
2024-02-11T03:18:49.495Z,8.13
2024-02-11T03:23:53.798Z,8.13
2024-02-11T03:28:56.819Z,8.10
2024-02-11T03:34:01.920Z,8.08
2024-02-11T03:39:10.072Z,8.08
2024-02-11T03:44:14.061Z,8.05
2024-02-11T03:49:17.193Z,8.05
2024-02-11T03:54:21.365Z,8.10
2024-02-11T03:59:24.395Z,8.10
2024-02-11T04:04:27.472Z,8.13
2024-02-11T04:09:31.794Z,8.17
2024-02-11T04:14:34.709Z,8.18
2024-02-11T04:19:38.097Z,8.21
2024-02-11T04:24:46.718Z,8.23
2024-02-11T04:29:49.581Z,8.25
2024-02-11T04:34:54.411Z,8.30
2024-02-11T04:39:59.605Z,8.31
2024-02-11T04:45:04.505Z,8.34
2024-02-11T04:50:11.470Z,8.33
2024-02-11T04:55:16.309Z,8.33
2024-02-11T05:00:26.694Z,8.27
2024-02-11T05:05:30.863Z,8.25
2024-02-11T05:10:38.484Z,8.21
2024-02-11T05:15:42.868Z,8.20
2024-02-11T05:20:45.745Z,8.17
2024-02-11T05:25:51.422Z,8.11
2024-02-11T05:30:57.208Z,8.09
2024-02-11T05:36:00.097Z,7.98
2024-02-11T05:41:05.322Z,7.90
2024-02-11T05:46:08.950Z,7.86
2024-02-11T05:51:14.006Z,7.80
2024-02-11T05:56:18.528Z,7.71
2024-02-11T06:01:22.240Z,7.69
2024-02-11T06:06:25.949Z,7.63
2024-02-11T06:11:30.231Z,7.57
2024-02-11T06:16:33.846Z,7.54
2024-02-11T06:21:37.789Z,7.54
2024-02-11T06:26:43.285Z,7.54
2024-02-11T06:31:46.195Z,7.49
2024-02-11T06:36:49.674Z,7.47
2024-02-11T06:41:54.486Z,7.45
2024-02-11T06:46:58.397Z,7.41
2024-02-11T06:52:01.405Z,7.43
2024-02-11T06:57:06.222Z,7.40
2024-02-11T07:02:09.396Z,7.38
2024-02-11T07:07:12.285Z,7.40
2024-02-11T07:12:18.613Z,7.43
2024-02-11T07:17:22.912Z,7.44
2024-02-11T07:22:26.680Z,7.48
2024-02-11T07:27:33.286Z,7.53
2024-02-11T07:32:37.433Z,7.51
2024-02-11T07:37:42.018Z,7.51
2024-02-11T07:42:47.349Z,7.49
2024-02-11T07:47:52.162Z,7.52
2024-02-11T07:52:56.885Z,7.51
2024-02-11T07:58:03.527Z,7.53
2024-02-11T08:03:09.069Z,7.55
2024-02-11T08:08:12.102Z,7.57
2024-02-11T08:13:16.324Z,7.63
2024-02-11T08:18:19.997Z,7.65
2024-02-11T08:23:24.914Z,7.68
2024-02-11T08:28:29.223Z,7.71
2024-02-11T08:33:33.593Z,7.84
2024-02-11T08:38:37.587Z,7.89
2024-02-11T08:43:42.674Z,7.95
2024-02-11T08:48:47.091Z,7.99
2024-02-11T08:53:50.813Z,8.05
2024-02-11T08:58:55.337Z,8.03
2024-02-11T09:04:00.955Z,8.11
2024-02-11T09:09:06.842Z,8.10
2024-02-11T09:14:12.097Z,8.16
2024-02-11T09:19:15.592Z,8.35
2024-02-11T09:24:19.512Z,8.56
2024-02-11T09:29:24.160Z,8.60
2024-02-11T09:34:27.198Z,8.57
2024-02-11T09:39:30.183Z,8.58
2024-02-11T09:44:37.377Z,8.55
2024-02-11T09:49:43.457Z,8.61
2024-02-11T09:54:47.576Z,8.72
2024-02-11T09:59:52.441Z,8.79
2024-02-11T10:05:01.914Z,8.86
2024-02-11T10:10:05.437Z,9.01
2024-02-11T10:15:14.160Z,9.52
2024-02-11T10:20:18.697Z,9.58
2024-02-11T10:25:23.870Z,9.58
2024-02-11T10:30:28.288Z,9.78
2024-02-11T10:35:31.771Z,10.06
2024-02-11T10:40:38.198Z,10.35
2024-02-11T10:45:42.552Z,10.46
2024-02-11T10:50:46.753Z,10.37
2024-02-11T10:55:50.417Z,10.57
2024-02-11T11:00:58.437Z,10.63
2024-02-11T11:06:02.168Z,10.55
2024-02-11T11:11:06.096Z,10.66
2024-02-11T11:16:12.511Z,10.50
2024-02-11T11:21:18.797Z,10.31
2024-02-11T11:26:22.694Z,10.19
2024-02-11T11:31:27.689Z,10.32
2024-02-11T11:36:30.692Z,10.32
2024-02-11T11:41:34.293Z,10.40
2024-02-11T11:46:38.633Z,10.57
2024-02-11T11:51:42.006Z,10.57
2024-02-11T11:56:46.634Z,10.69
2024-02-11T12:01:50.967Z,11.03
2024-02-11T12:06:54.484Z,11.44
2024-02-11T12:11:57.389Z,11.22
2024-02-11T12:17:02.882Z,11.48
2024-02-11T12:22:07.264Z,11.21
2024-02-11T12:27:12.625Z,10.92
2024-02-11T12:32:19.109Z,10.90
2024-02-11T12:37:27.391Z,10.52
2024-02-11T12:42:33.187Z,10.25
2024-02-11T12:47:37.931Z,10.32
2024-02-11T12:52:40.919Z,10.21
2024-02-11T12:57:44.170Z,10.23
2024-02-11T13:02:48.505Z,10.13
2024-02-11T13:07:51.341Z,10.08
2024-02-11T13:12:54.701Z,9.91
2024-02-11T13:17:58.990Z,9.85
2024-02-11T13:23:02.506Z,9.89
2024-02-11T13:28:05.990Z,10.35
2024-02-11T13:33:10.991Z,10.64
2024-02-11T13:38:14.253Z,10.50
2024-02-11T13:43:18.036Z,10.45
2024-02-11T13:48:22.500Z,10.39
2024-02-11T13:53:25.533Z,10.31
2024-02-11T13:58:28.444Z,10.24
2024-02-11T14:03:33.387Z,10.08
2024-02-11T14:08:37.352Z,10.00
2024-02-11T14:13:41.139Z,10.10
2024-02-11T14:18:49.082Z,10.13
2024-02-11T14:23:52.220Z,10.02
2024-02-11T14:28:55.267Z,9.92
2024-02-11T14:34:00.989Z,9.95
2024-02-11T14:39:04.195Z,9.94
2024-02-11T14:44:11.142Z,10.00
2024-02-11T14:49:15.574Z,10.04
2024-02-11T14:54:18.565Z,9.98
2024-02-11T14:59:22.111Z,9.96
2024-02-11T15:04:28.709Z,10.07
2024-02-11T15:09:32.172Z,10.26
2024-02-11T15:14:35.199Z,10.36
2024-02-11T15:19:40.841Z,10.40
2024-02-11T15:24:47.171Z,10.13
2024-02-11T15:29:50.098Z,10.12
2024-02-11T15:34:54.509Z,10.10
2024-02-11T15:39:57.363Z,10.31
2024-02-11T15:45:02.538Z,10.39
2024-02-11T15:50:07.988Z,10.33
2024-02-11T15:55:13.482Z,10.11
2024-02-11T16:00:21.791Z,10.02
2024-02-11T16:05:26.190Z,10.22
2024-02-11T16:10:29.430Z,10.04
2024-02-11T16:15:34.015Z,9.90
2024-02-11T16:20:38.350Z,9.67
2024-02-11T16:25:42.035Z,9.56
2024-02-11T16:30:45.488Z,9.45
2024-02-11T16:35:50.549Z,9.40
2024-02-11T16:40:56.064Z,9.34
2024-02-11T16:46:00.160Z,9.24
2024-02-11T16:51:05.262Z,9.17
2024-02-11T16:56:15.194Z,9.11
2024-02-11T17:01:18.895Z,9.06
2024-02-11T17:06:23.911Z,8.99
2024-02-11T17:11:27.012Z,8.93
2024-02-11T17:16:31.438Z,8.82
2024-02-11T17:21:37.810Z,8.62
2024-02-11T17:26:41.452Z,8.60
2024-02-11T17:31:45.994Z,8.57
2024-02-11T17:36:52.648Z,8.55
2024-02-11T17:41:57.281Z,8.56
2024-02-11T17:47:00.757Z,8.55
2024-02-11T17:52:07.353Z,8.56
2024-02-11T17:57:10.457Z,8.53
2024-02-11T18:02:13.777Z,8.53
2024-02-11T18:07:18.132Z,8.52
2024-02-11T18:12:21.151Z,8.50
2024-02-11T18:17:24.144Z,8.42
2024-02-11T18:22:31.091Z,8.31
2024-02-11T18:27:35.327Z,8.16
2024-02-11T18:32:38.688Z,8.10
2024-02-11T18:37:43.016Z,8.08
2024-02-11T18:42:45.929Z,8.05
2024-02-11T18:47:50.927Z,8.02
2024-02-11T18:52:55.503Z,7.98
2024-02-11T18:57:58.378Z,7.93
2024-02-11T19:03:02.493Z,7.94
2024-02-11T19:08:10.140Z,7.94
2024-02-11T19:13:13.689Z,7.92
2024-02-11T19:18:16.686Z,7.96
2024-02-11T19:23:21.477Z,7.96
2024-02-11T19:28:24.962Z,7.99
2024-02-11T19:33:28.063Z,8.01
2024-02-11T19:38:33.111Z,8.03
2024-02-11T19:43:36.037Z,8.03
2024-02-11T19:48:39.441Z,8.05
2024-02-11T19:53:44.261Z,8.05
2024-02-11T19:58:49.733Z,8.05
2024-02-11T20:03:52.731Z,8.05
2024-02-11T20:08:56.996Z,8.05
2024-02-11T20:14:00.397Z,8.05
2024-02-11T20:19:04.132Z,8.05
2024-02-11T20:24:10.520Z,8.06
2024-02-11T20:29:14.972Z,8.04
2024-02-11T20:34:18.155Z,8.06
2024-02-11T20:39:23.342Z,8.05
2024-02-11T20:44:27.851Z,8.05
2024-02-11T20:49:30.934Z,8.04
2024-02-11T20:54:35.973Z,7.98
2024-02-11T20:59:38.836Z,7.98
2024-02-11T21:04:43.801Z,7.95
2024-02-11T21:09:50.834Z,7.99
2024-02-11T21:14:55.051Z,7.95
2024-02-11T21:19:57.989Z,7.95
2024-02-11T21:25:02.286Z,7.90
2024-02-11T21:30:06.188Z,7.87
2024-02-11T21:35:10.522Z,7.84
2024-02-11T21:40:15.118Z,7.82
2024-02-11T21:45:19.482Z,7.81
2024-02-11T21:50:24.676Z,7.81
2024-02-11T21:55:28.956Z,7.78
2024-02-11T22:00:33.243Z,7.79
2024-02-11T22:05:37.574Z,7.78
2024-02-11T22:10:42.845Z,7.77
2024-02-11T22:15:46.049Z,7.74
2024-02-11T22:20:50.441Z,7.77
2024-02-11T22:25:55.503Z,7.80
2024-02-11T22:30:59.382Z,7.78
2024-02-11T22:36:02.369Z,7.77
2024-02-11T22:41:09.293Z,7.78
2024-02-11T22:46:12.165Z,7.75
2024-02-11T22:51:15.708Z,7.71
2024-02-11T22:56:20.890Z,7.69
2024-02-11T23:01:23.789Z,7.68
2024-02-11T23:06:27.189Z,7.70
2024-02-11T23:11:32.654Z,7.69
2024-02-11T23:16:35.645Z,7.70
2024-02-11T23:21:39.193Z,7.71
2024-02-11T23:26:43.364Z,7.70
2024-02-11T23:31:46.908Z,7.67
2024-02-11T23:36:50.232Z,7.67
2024-02-11T23:41:54.551Z,7.66
2024-02-11T23:46:59.214Z,7.65
2024-02-11T23:52:06.292Z,7.64
2024-02-11T23:57:13.631Z,7.63
